createdAt,value
2019-04-03T00:00:15.807Z,0
2019-04-03T00:01:17.238Z,0
2019-04-03T00:02:18.821Z,0
2019-04-03T00:03:20.285Z,0
2019-04-03T00:04:21.734Z,0
2019-04-03T00:05:23.177Z,0
2019-04-03T00:06:24.656Z,0
2019-04-03T00:07:26.073Z,0
2019-04-03T00:08:27.733Z,0
2019-04-03T00:09:29.199Z,0
2019-04-03T00:10:30.643Z,0
2019-04-03T00:11:32.262Z,0
2019-04-03T00:12:33.718Z,0
2019-04-03T00:13:35.166Z,0
2019-04-03T00:14:37.097Z,0
2019-04-03T00:15:38.602Z,0
2019-04-03T00:16:40.062Z,0
2019-04-03T00:17:41.732Z,0
2019-04-03T00:18:43.558Z,0
2019-04-03T00:19:45.831Z,0
2019-04-03T00:20:48.752Z,0
2019-04-03T00:21:50.185Z,0
2019-04-03T00:22:51.836Z,0
2019-04-03T00:23:52.643Z,0
2019-04-03T00:24:53.222Z,0
2019-04-03T00:25:54.643Z,0
2019-04-03T00:26:56.321Z,0
2019-04-03T00:27:57.783Z,0
2019-04-03T00:28:59.216Z,0
2019-04-03T00:30:00.879Z,0
2019-04-03T00:31:02.338Z,0
2019-04-03T00:32:03.821Z,0
2019-04-03T00:33:05.575Z,0
2019-04-03T00:34:06.804Z,0
2019-04-03T00:35:08.246Z,0
2019-04-03T00:36:09.919Z,0
2019-04-03T00:37:11.371Z,0
2019-04-03T00:38:13.218Z,0
2019-04-03T00:39:14.769Z,0
2019-04-03T00:40:16.620Z,0
2019-04-03T00:41:18.326Z,0
2019-04-03T00:42:19.797Z,0
2019-04-03T00:43:21.235Z,0
2019-04-03T00:44:24.277Z,0
2019-04-03T00:45:25.096Z,0
2019-04-03T00:46:26.504Z,0
2019-04-03T00:47:28.591Z,0
2019-04-03T00:48:30.000Z,0
2019-04-03T00:49:31.696Z,0
2019-04-03T00:50:33.262Z,0
2019-04-03T00:51:34.783Z,0
2019-04-03T00:52:36.231Z,0
2019-04-03T00:53:37.873Z,0
2019-04-03T00:54:39.324Z,0
2019-04-03T00:55:40.800Z,0
2019-04-03T00:56:42.403Z,0
2019-04-03T00:57:43.831Z,0
2019-04-03T00:58:45.412Z,0
2019-04-03T00:59:46.917Z,0
2019-04-03T01:00:48.352Z,0
2019-04-03T01:01:50.027Z,0
2019-04-03T01:02:51.497Z,0
2019-04-03T01:03:53.113Z,0
2019-04-03T01:04:54.559Z,0
2019-04-03T01:05:58.017Z,0
2019-04-03T01:06:58.616Z,0
2019-04-03T01:07:59.817Z,0
2019-04-03T01:09:00.454Z,0
2019-04-03T01:10:02.583Z,0
2019-04-03T01:11:04.104Z,0
2019-04-03T01:12:05.564Z,0
2019-04-03T01:13:07.297Z,0
2019-04-03T01:14:08.718Z,0
2019-04-03T01:15:10.273Z,0
2019-04-03T01:16:11.952Z,0
2019-04-03T01:17:13.284Z,0
2019-04-03T01:18:14.896Z,0
2019-04-03T01:19:16.358Z,0
2019-04-03T01:20:17.937Z,0
2019-04-03T01:21:19.429Z,0
2019-04-03T01:22:20.882Z,0
2019-04-03T01:23:22.302Z,0
2019-04-03T01:24:23.955Z,0
2019-04-03T01:25:25.407Z,0
2019-04-03T01:26:26.903Z,0
2019-04-03T01:27:28.435Z,0
2019-04-03T01:28:29.890Z,0
2019-04-03T01:29:31.342Z,0
2019-04-03T01:30:33.536Z,0
2019-04-03T01:31:35.011Z,0
2019-04-03T01:32:36.287Z,0
2019-04-03T01:33:38.854Z,0
2019-04-03T01:34:40.118Z,0
2019-04-03T01:35:41.586Z,0
2019-04-03T01:36:43.304Z,0
2019-04-03T01:37:44.741Z,0
2019-04-03T01:38:49.244Z,0
2019-04-03T01:39:49.043Z,0
2019-04-03T01:40:50.576Z,0
2019-04-03T01:41:52.045Z,0
2019-04-03T01:42:53.518Z,0
2019-04-03T01:43:54.761Z,0
2019-04-03T01:44:56.598Z,0
2019-04-03T01:45:58.105Z,0
2019-04-03T01:46:59.766Z,0
2019-04-03T01:48:01.626Z,0
2019-04-03T01:49:03.034Z,0
2019-04-03T01:50:05.068Z,0
2019-04-03T01:51:06.585Z,0
2019-04-03T01:52:08.149Z,0
2019-04-03T01:53:09.716Z,0
2019-04-03T01:54:11.555Z,0
2019-04-03T01:55:12.788Z,0
2019-04-03T01:56:14.333Z,0
2019-04-03T01:57:15.766Z,0
2019-04-03T01:58:17.216Z,0
2019-04-03T01:59:18.868Z,0
2019-04-03T02:00:20.565Z,0
2019-04-03T02:01:21.976Z,0
2019-04-03T02:02:23.598Z,0
2019-04-03T02:03:25.447Z,0
2019-04-03T02:04:26.889Z,0
2019-04-03T02:05:28.641Z,0
2019-04-03T02:06:30.184Z,0
2019-04-03T02:07:31.480Z,0
2019-04-03T02:08:33.059Z,0
2019-04-03T02:09:34.548Z,0
2019-04-03T02:10:36.155Z,0
2019-04-03T02:11:37.593Z,0
2019-04-03T02:12:39.464Z,0
2019-04-03T02:13:40.875Z,0
2019-04-03T02:14:42.530Z,0
2019-04-03T02:15:43.999Z,0
2019-04-03T02:16:45.610Z,0
2019-04-03T02:17:47.087Z,0
2019-04-03T02:18:48.677Z,0
2019-04-03T02:19:50.105Z,0
2019-04-03T02:20:51.775Z,0
2019-04-03T02:21:53.842Z,0
2019-04-03T02:22:55.338Z,0
2019-04-03T02:23:56.896Z,0
2019-04-03T02:24:59.590Z,0
2019-04-03T02:26:00.642Z,0
2019-04-03T02:27:03.154Z,0
2019-04-03T02:28:04.467Z,0
2019-04-03T02:29:06.746Z,0
2019-04-03T02:30:06.883Z,0
2019-04-03T02:31:09.014Z,0
2019-04-03T02:32:10.248Z,0
2019-04-03T02:33:11.986Z,0
2019-04-03T02:34:13.387Z,0
2019-04-03T02:35:14.842Z,0
2019-04-03T02:36:16.247Z,0
2019-04-03T02:37:18.070Z,0
2019-04-03T02:38:21.937Z,0
2019-04-03T02:39:25.713Z,0
2019-04-03T02:40:22.769Z,0
2019-04-03T02:41:24.468Z,0
2019-04-03T02:42:25.918Z,0
2019-04-03T02:43:27.581Z,0
2019-04-03T02:44:29.213Z,0
2019-04-03T02:45:30.638Z,0
2019-04-03T02:46:32.113Z,0
2019-04-03T02:47:34.132Z,0
2019-04-03T02:48:37.595Z,0
2019-04-03T02:49:36.663Z,0
2019-04-03T02:50:38.023Z,0
2019-04-03T02:51:39.700Z,0
2019-04-03T02:52:41.546Z,0
2019-04-03T02:53:43.181Z,0
2019-04-03T02:54:44.869Z,0
2019-04-03T02:55:46.229Z,0
2019-04-03T02:56:47.479Z,0
2019-04-03T02:57:49.854Z,0
2019-04-03T02:58:53.579Z,0
2019-04-03T02:59:52.330Z,0
2019-04-03T03:00:53.919Z,0
2019-04-03T03:01:55.352Z,0
2019-04-03T03:02:56.801Z,0
2019-04-03T03:03:58.725Z,0
2019-04-03T03:05:00.138Z,0
2019-04-03T03:06:01.519Z,0
2019-04-03T03:07:04.781Z,0
2019-04-03T03:08:08.219Z,0
2019-04-03T03:09:06.653Z,0
2019-04-03T03:10:08.281Z,0
2019-04-03T03:11:09.984Z,0
2019-04-03T03:12:11.339Z,0
2019-04-03T03:13:12.734Z,0
2019-04-03T03:14:14.062Z,0
2019-04-03T03:15:15.526Z,0
2019-04-03T03:16:18.138Z,0
2019-04-03T03:17:21.686Z,0
2019-04-03T03:18:20.474Z,0
2019-04-03T03:19:21.877Z,0
2019-04-03T03:20:23.425Z,0
2019-04-03T03:21:24.915Z,0
2019-04-03T03:22:26.606Z,0
2019-04-03T03:23:28.156Z,0
2019-04-03T03:24:30.044Z,0
2019-04-03T03:25:33.326Z,0
2019-04-03T03:26:32.136Z,0
2019-04-03T03:27:33.784Z,0
2019-04-03T03:28:35.437Z,0
2019-04-03T03:29:37.112Z,0
2019-04-03T03:30:45.130Z,0
2019-04-03T03:32:01.980Z,0
2019-04-03T03:32:41.917Z,0
2019-04-03T03:33:43.597Z,0
2019-04-03T03:34:53.756Z,0
2019-04-03T03:35:48.621Z,0
2019-04-03T03:36:48.222Z,0
2019-04-03T03:37:49.735Z,0
2019-04-03T03:38:51.302Z,0
2019-04-03T03:39:52.879Z,0
2019-04-03T03:40:54.499Z,0
2019-04-03T03:41:57.433Z,0
2019-04-03T03:42:57.607Z,0
2019-04-03T03:43:59.410Z,0
2019-04-03T03:45:01.062Z,0
2019-04-03T03:46:02.480Z,0
2019-04-03T03:47:03.974Z,0
2019-04-03T03:48:08.761Z,0
2019-04-03T03:49:07.167Z,0
2019-04-03T03:50:08.420Z,0
2019-04-03T03:51:10.010Z,0
2019-04-03T03:52:11.448Z,0
2019-04-03T03:53:13.403Z,0
2019-04-03T03:54:16.960Z,0
2019-04-03T03:55:16.020Z,0
2019-04-03T03:56:17.672Z,0
2019-04-03T03:57:19.107Z,0
2019-04-03T03:58:21.163Z,0
2019-04-03T03:59:22.674Z,0
2019-04-03T04:00:24.634Z,0
2019-04-03T04:01:25.664Z,0
2019-04-03T04:02:27.280Z,0
2019-04-03T04:03:28.742Z,0
2019-04-03T04:04:30.550Z,0
2019-04-03T04:05:31.869Z,0
2019-04-03T04:06:35.365Z,0
2019-04-03T04:07:37.458Z,0
2019-04-03T04:08:36.548Z,0
2019-04-03T04:09:38.391Z,0
2019-04-03T04:10:40.652Z,0
2019-04-03T04:11:42.303Z,0
2019-04-03T04:12:43.989Z,0
2019-04-03T04:13:47.887Z,0
2019-04-03T04:14:47.006Z,0
2019-04-03T04:15:48.427Z,0
2019-04-03T04:16:50.128Z,0
2019-04-03T04:17:51.909Z,0
2019-04-03T04:18:55.646Z,0
2019-04-03T04:19:54.964Z,0
2019-04-03T04:20:56.603Z,0
2019-04-03T04:21:58.040Z,0
2019-04-03T04:22:59.851Z,0
2019-04-03T04:24:01.931Z,0
2019-04-03T04:25:04.164Z,0
2019-04-03T04:26:05.717Z,0
2019-04-03T04:27:07.427Z,0
2019-04-03T04:28:09.195Z,0
2019-04-03T04:29:10.761Z,0
2019-04-03T04:30:12.279Z,0
2019-04-03T04:31:13.378Z,0
2019-04-03T04:32:14.936Z,0
2019-04-03T04:33:16.979Z,0
2019-04-03T04:34:18.894Z,0
2019-04-03T04:35:21.527Z,0
2019-04-03T04:36:23.401Z,0
2019-04-03T04:37:22.487Z,0
2019-04-03T04:38:24.819Z,0
2019-04-03T04:39:26.494Z,0
2019-04-03T04:40:27.312Z,4
2019-04-03T04:41:28.910Z,4
2019-04-03T04:42:30.520Z,4
2019-04-03T04:43:32.246Z,4
2019-04-03T04:44:33.661Z,4
2019-04-03T04:45:35.602Z,4
2019-04-03T04:46:37.330Z,4
2019-04-03T04:47:39.056Z,12
2019-04-03T04:48:40.274Z,8
2019-04-03T04:49:42.094Z,12
2019-04-03T04:50:43.603Z,16
2019-04-03T04:51:45.273Z,20
2019-04-03T04:52:46.740Z,24
2019-04-03T04:53:48.320Z,28
2019-04-03T04:54:49.837Z,28
2019-04-03T04:55:51.419Z,32
2019-04-03T04:56:52.954Z,32
2019-04-03T04:57:54.478Z,32
2019-04-03T04:58:56.180Z,32
2019-04-03T04:59:57.862Z,36
2019-04-03T05:00:59.682Z,40
2019-04-03T05:02:01.087Z,40
2019-04-03T05:03:02.512Z,40
2019-04-03T05:04:04.354Z,40
2019-04-03T05:05:08.286Z,44
2019-04-03T05:06:07.259Z,48
2019-04-03T05:07:08.871Z,56
2019-04-03T05:08:10.359Z,72
2019-04-03T05:09:11.744Z,84
2019-04-03T05:10:13.448Z,100
2019-04-03T05:11:14.873Z,108
2019-04-03T05:12:16.437Z,108
2019-04-03T05:13:17.942Z,112
2019-04-03T05:14:19.380Z,116
2019-04-03T05:15:23.432Z,124
2019-04-03T05:16:24.468Z,128
2019-04-03T05:17:24.807Z,132
2019-04-03T05:18:25.570Z,136
2019-04-03T05:19:27.051Z,140
2019-04-03T05:20:28.581Z,156
2019-04-03T05:21:30.305Z,172
2019-04-03T05:22:32.010Z,192
2019-04-03T05:23:33.548Z,212
2019-04-03T05:24:35.464Z,224
2019-04-03T05:25:37.128Z,224
2019-04-03T05:26:38.760Z,220
2019-04-03T05:27:40.474Z,232
2019-04-03T05:28:53.130Z,232
2019-04-03T05:29:43.136Z,232
2019-04-03T05:30:44.695Z,256
2019-04-03T05:31:46.202Z,280
2019-04-03T05:32:47.767Z,320
2019-04-03T05:33:49.473Z,360
2019-04-03T05:34:51.333Z,388
2019-04-03T05:35:52.686Z,392
2019-04-03T05:36:54.153Z,384
2019-04-03T05:37:55.870Z,368
2019-04-03T05:38:57.459Z,348
2019-04-03T05:39:58.986Z,340
2019-04-03T05:41:00.555Z,364
2019-04-03T05:42:02.268Z,412
2019-04-03T05:43:03.810Z,476
2019-04-03T05:44:04.970Z,524
2019-04-03T05:45:06.486Z,548
2019-04-03T05:46:07.905Z,548
2019-04-03T05:47:09.800Z,536
2019-04-03T05:48:13.399Z,540
2019-04-03T05:49:12.614Z,528
2019-04-03T05:50:14.300Z,516
2019-04-03T05:51:16.008Z,520
2019-04-03T05:52:17.414Z,528
2019-04-03T05:53:19.082Z,544
2019-04-03T05:54:20.490Z,552
2019-04-03T05:55:21.931Z,552
2019-04-03T05:56:23.771Z,572
2019-04-03T05:57:25.170Z,592
2019-04-03T05:58:26.619Z,604
2019-04-03T05:59:28.494Z,616
2019-04-03T06:00:29.953Z,628
2019-04-03T06:01:31.392Z,600
2019-04-03T06:02:33.038Z,568
2019-04-03T06:03:40.794Z,572
2019-04-03T06:04:35.959Z,620
2019-04-03T06:05:37.778Z,672
2019-04-03T06:06:38.960Z,676
2019-04-03T06:07:40.907Z,668
2019-04-03T06:08:42.227Z,648
2019-04-03T06:09:44.207Z,632
2019-04-03T06:10:45.597Z,592
2019-04-03T06:11:47.625Z,576
2019-04-03T06:12:49.338Z,588
2019-04-03T06:13:50.704Z,600
2019-04-03T06:14:52.131Z,624
2019-04-03T06:15:54.140Z,664
2019-04-03T06:16:56.204Z,712
2019-04-03T06:17:56.682Z,780
2019-04-03T06:18:59.048Z,864
2019-04-03T06:19:59.906Z,968
2019-04-03T06:21:01.538Z,1044
2019-04-03T06:22:02.979Z,1104
2019-04-03T06:23:04.414Z,1192
2019-04-03T06:24:05.920Z,1184
2019-04-03T06:25:12.247Z,1092
2019-04-03T06:26:08.993Z,940
2019-04-03T06:27:10.604Z,832
2019-04-03T06:28:13.384Z,772
2019-04-03T06:29:13.497Z,796
2019-04-03T06:30:15.210Z,832
2019-04-03T06:31:16.748Z,804
2019-04-03T06:32:18.588Z,764
2019-04-03T06:33:20.050Z,732
2019-04-03T06:34:21.586Z,708
2019-04-03T06:35:23.054Z,696
2019-04-03T06:36:24.975Z,700
2019-04-03T06:37:26.069Z,732
2019-04-03T06:38:27.771Z,792
2019-04-03T06:39:31.235Z,872
2019-04-03T06:40:30.849Z,972
2019-04-03T06:41:32.303Z,1140
2019-04-03T06:42:33.909Z,1268
2019-04-03T06:43:35.397Z,1308
2019-04-03T06:44:37.322Z,1256
2019-04-03T06:45:38.513Z,1140
2019-04-03T06:46:40.126Z,1016
2019-04-03T06:47:41.747Z,980
2019-04-03T06:48:43.401Z,1040
2019-04-03T06:49:44.863Z,1156
2019-04-03T06:50:46.953Z,1244
2019-04-03T06:51:49.429Z,1260
2019-04-03T06:52:51.228Z,1288
2019-04-03T06:53:51.605Z,1348
2019-04-03T06:54:53.270Z,1384
2019-04-03T06:55:54.765Z,1384
2019-04-03T06:56:56.667Z,1332
2019-04-03T06:57:58.155Z,1232
2019-04-03T06:58:59.565Z,1112
2019-04-03T07:00:01.276Z,992
2019-04-03T07:01:02.513Z,888
2019-04-03T07:02:04.136Z,780
2019-04-03T07:03:05.777Z,680
2019-04-03T07:04:07.391Z,592
2019-04-03T07:05:10.258Z,520
2019-04-03T07:06:11.532Z,484
2019-04-03T07:07:12.371Z,492
2019-04-03T07:08:13.848Z,568
2019-04-03T07:09:22.737Z,752
2019-04-03T07:10:25.342Z,1004
2019-04-03T07:11:23.556Z,1228
2019-04-03T07:12:20.028Z,1396
2019-04-03T07:13:21.630Z,1532
2019-04-03T07:14:25.497Z,1640
2019-04-03T07:15:25.186Z,1752
2019-04-03T07:16:26.800Z,1856
2019-04-03T07:17:27.567Z,1888
2019-04-03T07:18:29.165Z,1800
2019-04-03T07:19:30.684Z,1740
2019-04-03T07:20:32.152Z,1748
2019-04-03T07:21:33.611Z,1744
2019-04-03T07:22:35.211Z,1728
2019-04-03T07:23:36.972Z,1700
2019-04-03T07:24:38.324Z,1668
2019-04-03T07:25:39.930Z,1604
2019-04-03T07:26:41.741Z,1564
2019-04-03T07:27:42.846Z,1564
2019-04-03T07:28:44.454Z,1592
2019-04-03T07:29:48.298Z,1644
2019-04-03T07:30:47.772Z,1712
2019-04-03T07:31:48.936Z,1780
2019-04-03T07:32:50.646Z,1820
2019-04-03T07:33:52.087Z,1824
2019-04-03T07:34:53.732Z,1784
2019-04-03T07:35:55.222Z,1716
2019-04-03T07:36:56.819Z,1664
2019-04-03T07:37:58.260Z,1628
2019-04-03T07:38:59.881Z,1600
2019-04-03T07:40:01.326Z,1616
2019-04-03T07:41:02.941Z,1620
2019-04-03T07:42:04.462Z,1656
2019-04-03T07:43:06.105Z,1800
2019-04-03T07:44:07.486Z,2028
2019-04-03T07:45:09.353Z,2304
2019-04-03T07:46:10.804Z,2512
2019-04-03T07:47:12.953Z,2608
2019-04-03T07:48:14.967Z,2768
2019-04-03T07:49:16.550Z,3080
2019-04-03T07:50:18.196Z,3460
2019-04-03T07:51:20.036Z,3872
2019-04-03T07:52:21.523Z,4204
2019-04-03T07:53:23.311Z,4432
2019-04-03T07:54:26.323Z,4464
2019-04-03T07:55:27.984Z,4356
2019-04-03T07:56:28.318Z,4160
2019-04-03T07:57:29.806Z,3892
2019-04-03T07:58:32.137Z,3608
2019-04-03T07:59:33.828Z,3440
2019-04-03T08:00:34.401Z,3408
2019-04-03T08:01:36.120Z,3400
2019-04-03T08:02:37.563Z,3356
2019-04-03T08:03:39.408Z,3268
2019-04-03T08:04:40.878Z,3164
2019-04-03T08:05:42.697Z,3084
2019-04-03T08:06:44.368Z,2988
2019-04-03T08:07:46.252Z,2836
2019-04-03T08:08:50.411Z,2688
2019-04-03T08:09:49.047Z,2572
2019-04-03T08:10:50.737Z,2464
2019-04-03T08:11:52.343Z,2360
2019-04-03T08:12:54.079Z,2288
2019-04-03T08:13:55.751Z,2296
2019-04-03T08:14:56.855Z,2376
2019-04-03T08:15:58.536Z,2448
2019-04-03T08:16:59.965Z,2548
2019-04-03T08:18:01.604Z,2740
2019-04-03T08:19:03.057Z,3020
2019-04-03T08:20:04.773Z,3292
2019-04-03T08:21:06.365Z,3440
2019-04-03T08:22:08.147Z,3420
2019-04-03T08:23:09.676Z,3520
2019-04-03T08:24:11.282Z,3600
2019-04-03T08:25:12.959Z,3640
2019-04-03T08:26:14.393Z,3660
2019-04-03T08:27:16.182Z,3760
2019-04-03T08:28:17.936Z,3972
2019-04-03T08:29:19.472Z,4384
2019-04-03T08:30:21.312Z,4872
2019-04-03T08:31:22.955Z,5064
2019-04-03T08:32:24.650Z,5076
2019-04-03T08:33:27.464Z,5092
2019-04-03T08:34:30.482Z,5280
2019-04-03T08:35:29.768Z,5532
2019-04-03T08:36:30.977Z,5732
2019-04-03T08:37:33.173Z,5892
2019-04-03T08:38:34.365Z,5948
2019-04-03T08:39:35.796Z,5792
2019-04-03T08:40:37.251Z,5588
2019-04-03T08:41:38.866Z,5544
2019-04-03T08:42:40.300Z,5556
2019-04-03T08:43:41.792Z,5368
2019-04-03T08:44:43.385Z,5060
2019-04-03T08:45:44.866Z,4836
2019-04-03T08:46:46.408Z,4820
2019-04-03T08:47:47.962Z,4952
2019-04-03T08:48:49.681Z,5052
2019-04-03T08:49:50.995Z,5160
2019-04-03T08:50:52.651Z,5316
2019-04-03T08:51:54.068Z,5528
2019-04-03T08:52:55.654Z,5704
2019-04-03T08:53:57.236Z,5732
2019-04-03T08:54:58.429Z,5636
2019-04-03T08:56:00.182Z,5420
2019-04-03T08:57:01.358Z,5124
2019-04-03T08:58:02.767Z,4928
2019-04-03T08:59:04.416Z,4840
2019-04-03T09:00:06.087Z,4916
2019-04-03T09:01:09.937Z,5152
2019-04-03T09:02:12.563Z,5280
2019-04-03T09:03:12.318Z,5228
2019-04-03T09:04:12.223Z,5072
2019-04-03T09:05:14.494Z,4976
2019-04-03T09:06:15.222Z,5128
2019-04-03T09:07:16.927Z,5476
2019-04-03T09:08:18.551Z,5956
2019-04-03T09:09:20.222Z,6484
2019-04-03T09:10:22.391Z,7080
2019-04-03T09:11:23.819Z,7920
2019-04-03T09:12:25.505Z,8704
2019-04-03T09:13:27.106Z,9932
2019-04-03T09:14:29.253Z,10936
2019-04-03T09:15:30.447Z,11680
2019-04-03T09:16:32.157Z,12304
2019-04-03T09:17:34.121Z,11984
2019-04-03T09:18:38.046Z,12600
2019-04-03T09:19:36.928Z,12152
2019-04-03T09:20:38.477Z,13232
2019-04-03T09:21:40.160Z,14860
2019-04-03T09:22:41.601Z,15768
2019-04-03T09:23:43.423Z,16960
2019-04-03T09:24:44.881Z,18464
2019-04-03T09:25:46.312Z,18240
2019-04-03T09:26:47.974Z,14068
2019-04-03T09:27:49.444Z,11228
2019-04-03T09:28:51.448Z,10476
2019-04-03T09:29:52.810Z,10952
2019-04-03T09:30:54.199Z,14744
2019-04-03T09:31:56.246Z,18368
2019-04-03T09:32:59.591Z,18944
2019-04-03T09:33:58.869Z,16864
2019-04-03T09:35:01.409Z,14940
2019-04-03T09:36:03.941Z,14784
2019-04-03T09:37:05.841Z,16608
2019-04-03T09:38:05.341Z,19936
2019-04-03T09:39:06.545Z,15260
2019-04-03T09:40:08.278Z,11520
2019-04-03T09:41:09.836Z,9296
2019-04-03T09:42:11.044Z,7860
2019-04-03T09:43:12.667Z,6636
2019-04-03T09:44:14.356Z,5676
2019-04-03T09:45:15.721Z,5080
2019-04-03T09:46:17.193Z,4748
2019-04-03T09:47:18.827Z,4532
2019-04-03T09:48:20.282Z,4296
2019-04-03T09:49:22.172Z,3924
2019-04-03T09:50:23.328Z,3564
2019-04-03T09:51:24.974Z,3476
2019-04-03T09:52:38.006Z,3600
2019-04-03T09:53:28.313Z,3752
2019-04-03T09:54:29.619Z,3936
2019-04-03T09:55:35.791Z,4212
2019-04-03T09:56:32.505Z,4476
2019-04-03T09:57:34.250Z,4688
2019-04-03T09:58:35.792Z,4880
2019-04-03T09:59:37.791Z,5072
2019-04-03T10:00:41.094Z,5164
2019-04-03T10:01:39.996Z,5104
2019-04-03T10:02:41.475Z,4936
2019-04-03T10:03:42.945Z,4868
2019-04-03T10:04:44.526Z,4864
2019-04-03T10:05:46.140Z,4736
2019-04-03T10:06:47.471Z,4620
2019-04-03T10:07:49.337Z,4656
2019-04-03T10:08:50.439Z,4692
2019-04-03T10:09:53.790Z,4644
2019-04-03T10:10:53.585Z,4508
2019-04-03T10:11:55.006Z,4308
2019-04-03T10:12:56.541Z,4140
2019-04-03T10:13:58.362Z,4084
2019-04-03T10:15:00.091Z,4240
2019-04-03T10:16:03.416Z,4544
2019-04-03T10:17:03.877Z,4720
2019-04-03T10:18:04.119Z,4960
2019-04-03T10:19:05.269Z,5232
2019-04-03T10:20:06.947Z,5400
2019-04-03T10:21:08.388Z,5532
2019-04-03T10:22:10.056Z,5584
2019-04-03T10:23:11.482Z,5628
2019-04-03T10:24:13.213Z,5648
2019-04-03T10:25:14.516Z,5780
2019-04-03T10:26:16.548Z,5912
2019-04-03T10:27:17.630Z,6020
2019-04-03T10:28:19.287Z,6216
2019-04-03T10:29:20.850Z,6528
2019-04-03T10:30:22.483Z,6896
2019-04-03T10:31:24.286Z,7120
2019-04-03T10:32:27.169Z,7184
2019-04-03T10:33:26.489Z,7200
2019-04-03T10:34:28.369Z,7196
2019-04-03T10:35:29.819Z,7260
2019-04-03T10:36:31.727Z,7388
2019-04-03T10:37:32.872Z,7288
2019-04-03T10:38:34.334Z,7296
2019-04-03T10:39:35.924Z,7404
2019-04-03T10:40:37.760Z,7500
2019-04-03T10:41:39.435Z,7936
2019-04-03T10:42:40.699Z,8568
2019-04-03T10:43:42.189Z,9116
2019-04-03T10:44:43.605Z,9752
2019-04-03T10:45:45.217Z,10168
2019-04-03T10:46:47.797Z,10064
2019-04-03T10:47:48.050Z,9772
2019-04-03T10:48:49.751Z,10408
2019-04-03T10:49:51.295Z,11336
2019-04-03T10:50:52.637Z,12068
2019-04-03T10:51:54.087Z,13844
2019-04-03T10:52:55.509Z,13048
2019-04-03T10:53:57.124Z,15516
2019-04-03T10:54:58.928Z,20032
2019-04-03T10:56:00.604Z,22592
2019-04-03T10:57:03.031Z,19104
2019-04-03T10:58:03.034Z,19904
2019-04-03T10:59:10.307Z,20192
2019-04-03T11:00:05.792Z,16992
2019-04-03T11:01:07.338Z,14968
2019-04-03T11:02:08.902Z,15368
2019-04-03T11:03:10.602Z,15564
2019-04-03T11:04:12.259Z,15568
2019-04-03T11:05:13.962Z,16576
2019-04-03T11:06:15.240Z,15780
2019-04-03T11:07:16.624Z,15228
2019-04-03T11:08:18.118Z,14188
2019-04-03T11:09:19.917Z,14272
2019-04-03T11:10:23.327Z,14348
2019-04-03T11:11:22.768Z,16180
2019-04-03T11:12:24.105Z,18688
2019-04-03T11:13:25.758Z,14164
2019-04-03T11:14:27.196Z,11108
2019-04-03T11:15:28.674Z,9344
2019-04-03T11:16:30.720Z,8564
2019-04-03T11:17:32.346Z,8972
2019-04-03T11:18:33.977Z,9092
2019-04-03T11:19:37.214Z,9556
2019-04-03T11:20:37.193Z,9216
2019-04-03T11:21:38.826Z,8092
2019-04-03T11:22:42.072Z,7036
2019-04-03T11:23:44.904Z,6144
2019-04-03T11:24:43.389Z,5764
2019-04-03T11:25:45.970Z,5600
2019-04-03T11:26:46.530Z,5540
2019-04-03T11:27:48.615Z,6392
2019-04-03T11:28:50.325Z,6288
2019-04-03T11:29:51.629Z,6144
2019-04-03T11:30:53.459Z,7576
2019-04-03T11:31:54.553Z,9584
2019-04-03T11:32:56.599Z,10388
2019-04-03T11:33:58.382Z,11080
2019-04-03T11:34:59.950Z,9644
2019-04-03T11:36:01.609Z,7560
2019-04-03T11:37:03.080Z,7716
2019-04-03T11:38:12.701Z,8456
2019-04-03T11:39:12.289Z,8384
2019-04-03T11:40:07.522Z,8264
2019-04-03T11:41:14.424Z,10316
2019-04-03T11:42:21.994Z,11772
2019-04-03T11:43:12.041Z,10496
2019-04-03T11:44:13.879Z,9016
2019-04-03T11:45:15.280Z,9532
2019-04-03T11:46:16.741Z,10912
2019-04-03T11:47:18.976Z,12120
2019-04-03T11:48:20.291Z,12632
2019-04-03T11:49:22.191Z,11872
2019-04-03T11:50:24.268Z,14240
2019-04-03T11:51:25.503Z,12684
2019-04-03T11:52:27.661Z,12344
2019-04-03T11:53:33.037Z,13572
2019-04-03T11:54:34.232Z,11476
2019-04-03T11:55:39.987Z,9220
2019-04-03T11:56:44.706Z,8548
2019-04-03T11:57:49.470Z,7804
2019-04-03T11:58:51.904Z,6908
2019-04-03T11:59:52.997Z,6140
2019-04-03T12:00:53.289Z,7440
2019-04-03T12:01:54.715Z,8016
2019-04-03T12:02:56.675Z,7644
2019-04-03T12:04:02.753Z,10496
2019-04-03T12:05:04.442Z,10784
2019-04-03T12:06:05.706Z,8044
2019-04-03T12:07:07.587Z,7940
2019-04-03T12:08:11.778Z,8380
2019-04-03T12:09:10.813Z,7892
2019-04-03T12:10:12.526Z,6348
2019-04-03T12:11:13.868Z,5488
2019-04-03T12:12:15.389Z,5384
2019-04-03T12:13:17.132Z,5244
2019-04-03T12:14:18.790Z,7096
2019-04-03T12:15:21.442Z,11216
2019-04-03T12:16:24.011Z,13640
2019-04-03T12:17:23.305Z,13744
2019-04-03T12:18:25.238Z,13048
2019-04-03T12:19:26.397Z,14272
2019-04-03T12:20:27.850Z,12648
2019-04-03T12:21:29.485Z,12240
2019-04-03T12:22:30.937Z,12228
2019-04-03T12:23:32.398Z,12504
2019-04-03T12:24:33.972Z,13172
2019-04-03T12:25:38.250Z,12480
2019-04-03T12:26:36.780Z,12172
2019-04-03T12:27:38.292Z,9812
2019-04-03T12:28:39.728Z,8048
2019-04-03T12:29:41.168Z,7544
2019-04-03T12:30:42.817Z,7732
2019-04-03T12:31:44.256Z,8336
2019-04-03T12:32:49.000Z,9072
2019-04-03T12:33:56.314Z,9608
2019-04-03T12:34:48.689Z,9796
2019-04-03T12:35:50.556Z,9768
2019-04-03T12:36:51.649Z,10024
2019-04-03T12:37:53.385Z,10484
2019-04-03T12:38:55.386Z,10784
2019-04-03T12:39:56.258Z,10636
2019-04-03T12:40:57.311Z,10456
2019-04-03T12:41:58.870Z,9824
2019-04-03T12:43:00.747Z,8444
2019-04-03T12:44:02.409Z,6780
2019-04-03T12:45:04.198Z,5272
2019-04-03T12:46:05.310Z,4796
2019-04-03T12:47:12.121Z,5508
2019-04-03T12:48:08.201Z,6180
2019-04-03T12:49:09.743Z,6016
2019-04-03T12:50:12.905Z,5036
2019-04-03T12:51:12.680Z,4292
2019-04-03T12:52:14.507Z,4224
2019-04-03T12:53:16.455Z,4784
2019-04-03T12:54:19.909Z,5220
2019-04-03T12:55:19.387Z,6088
2019-04-03T12:56:20.841Z,6964
2019-04-03T12:57:22.181Z,8436
2019-04-03T12:58:23.600Z,9616
2019-04-03T12:59:25.085Z,10196
2019-04-03T13:00:26.906Z,9960
2019-04-03T13:01:28.076Z,9112
2019-04-03T13:02:30.099Z,8080
2019-04-03T13:03:31.231Z,7304
2019-04-03T13:04:32.853Z,6792
2019-04-03T13:05:36.303Z,6668
2019-04-03T13:06:35.827Z,6796
2019-04-03T13:07:37.444Z,6648
2019-04-03T13:08:38.838Z,6180
2019-04-03T13:09:40.295Z,5504
2019-04-03T13:10:45.063Z,5080
2019-04-03T13:11:43.366Z,4856
2019-04-03T13:12:44.834Z,5084
2019-04-03T13:13:46.323Z,5864
2019-04-03T13:14:49.054Z,6840
2019-04-03T13:15:49.382Z,6892
2019-04-03T13:16:50.656Z,6200
2019-04-03T13:17:52.232Z,5748
2019-04-03T13:18:53.661Z,5824
2019-04-03T13:19:55.206Z,6572
2019-04-03T13:20:56.811Z,7364
2019-04-03T13:21:58.145Z,8236
2019-04-03T13:22:59.739Z,8588
2019-04-03T13:24:01.249Z,8284
2019-04-03T13:25:02.899Z,7876
2019-04-03T13:26:04.168Z,7564
2019-04-03T13:27:05.611Z,7560
2019-04-03T13:28:07.180Z,7800
2019-04-03T13:29:09.006Z,8520
2019-04-03T13:30:12.002Z,9720
2019-04-03T13:31:12.766Z,10896
2019-04-03T13:32:13.256Z,11128
2019-04-03T13:33:16.540Z,10924
2019-04-03T13:34:15.851Z,10528
2019-04-03T13:35:17.339Z,10208
2019-04-03T13:36:19.702Z,9912
2019-04-03T13:37:22.864Z,9000
2019-04-03T13:38:22.036Z,7380
2019-04-03T13:39:23.492Z,6272
2019-04-03T13:40:24.969Z,5564
2019-04-03T13:41:26.858Z,4956
2019-04-03T13:42:30.580Z,4544
2019-04-03T13:43:29.431Z,4124
2019-04-03T13:44:31.107Z,3672
2019-04-03T13:45:32.646Z,3164
2019-04-03T13:46:34.464Z,2956
2019-04-03T13:47:35.908Z,2824
2019-04-03T13:48:37.686Z,2848
2019-04-03T13:49:38.831Z,3104
2019-04-03T13:50:40.229Z,3528
2019-04-03T13:51:41.787Z,3696
2019-04-03T13:52:47.595Z,3476
2019-04-03T13:53:45.377Z,3060
2019-04-03T13:54:46.306Z,2544
2019-04-03T13:55:47.949Z,2212
2019-04-03T13:56:52.080Z,2040
2019-04-03T13:57:51.451Z,2000
2019-04-03T13:58:53.640Z,1992
2019-04-03T13:59:58.206Z,1972
2019-04-03T14:01:00.703Z,1900
2019-04-03T14:01:57.451Z,1832
2019-04-03T14:02:58.624Z,1764
2019-04-03T14:04:00.458Z,1732
2019-04-03T14:05:01.875Z,1732
2019-04-03T14:06:04.468Z,1748
2019-04-03T14:07:07.244Z,1788
2019-04-03T14:08:07.255Z,1780
2019-04-03T14:09:07.818Z,1656
2019-04-03T14:10:09.771Z,1492